Time;durP1;ratioP1;P1;durP2;ratioP2;P2;SDS_P1;SDS_P2;PMS_P1;PMS_P2;Temp;Humidity;BMP_temperature;BMP_pressure;BME280_temperature;BME280_humidity;BME280_pressure;Samples;Min_cycle;Max_cycle;Signal;HPM_P1;HPM_P2
2023/12/01 00:02:24;;;;;;;35.25;22.95;;;;;;;2.49;100.00;99957.91;5072249;28;20413;-81
2023/12/01 00:04:52;;;;;;;34.97;21.83;;;;;;;2.07;100.00;99952.94;5072313;28;20509;-78
2023/12/01 00:07:18;;;;;;;34.28;21.20;;;;;;;1.67;100.00;99936.19;5054422;28;20111;-77
2023/12/01 00:09:43;;;;;;;35.53;21.75;;;;;;;1.88;100.00;99949.66;5072411;28;20034;-78
2023/12/01 00:12:09;;;;;;;37.65;20.83;;;;;;;1.87;100.00;99958.53;5072045;28;20395;-78
2023/12/01 00:14:34;;;;;;;36.22;21.35;;;;;;;1.66;100.00;99951.13;5072357;28;20086;-78
2023/12/01 00:17:00;;;;;;;34.90;21.77;;;;;;;2.01;100.00;99949.97;5072632;28;20226;-81
2023/12/01 00:19:25;;;;;;;33.42;22.10;;;;;;;2.57;100.00;99980.78;5054141;28;20472;-78
2023/12/01 00:21:51;;;;;;;44.08;27.92;;;;;;;2.22;100.00;99967.03;5054205;28;20669;-78
2023/12/01 00:24:16;;;;;;;37.40;23.35;;;;;;;2.32;100.00;99972.94;5071709;28;20497;-78
2023/12/01 00:26:42;;;;;;;32.53;22.63;;;;;;;2.40;100.00;99980.00;5072234;28;20044;-78
2023/12/01 00:29:07;;;;;;;29.75;19.63;;;;;;;2.19;100.00;99988.44;5053536;28;20055;-78
2023/12/01 00:31:33;;;;;;;31.30;19.80;;;;;;;1.99;100.00;99975.63;5072092;28;20039;-78
2023/12/01 00:33:59;;;;;;;29.35;20.35;;;;;;;2.41;100.00;99981.63;5071891;28;20029;-80
2023/12/01 00:36:25;;;;;;;30.90;21.67;;;;;;;2.20;100.00;99950.59;5071577;28;20036;-82
2023/12/01 00:38:50;;;;;;;32.63;22.30;;;;;;;2.48;100.00;99955.47;5071725;28;20048;-78
2023/12/01 00:41:16;;;;;;;34.65;21.40;;;;;;;2.12;100.00;99950.59;5071462;28;20505;-78
2023/12/01 00:43:41;;;;;;;28.40;19.52;;;;;;;1.70;100.00;99935.88;5071314;28;20093;-77
2023/12/01 00:46:07;;;;;;;28.50;19.40;;;;;;;1.47;100.00;99947.03;5071255;28;20024;-79
2023/12/01 00:48:33;;;;;;;32.25;20.65;;;;;;;1.54;100.00;99970.84;5053637;28;20051;-78
2023/12/01 00:50:58;;;;;;;35.60;21.58;;;;;;;1.92;100.00;99956.25;5053816;28;20385;-78
2023/12/01 00:53:24;;;;;;;33.10;22.35;;;;;;;2.17;100.00;99937.78;5055707;28;20504;-78
2023/12/01 00:55:49;;;;;;;32.55;22.40;;;;;;;2.68;100.00;99977.78;5070825;28;20028;-80
2023/12/01 00:58:15;;;;;;;35.63;22.65;;;;;;;2.18;100.00;99952.56;5071398;28;20421;-78
2023/12/01 01:00:40;;;;;;;35.85;22.60;;;;;;;2.16;100.00;99957.19;5054402;28;20560;-77
2023/12/01 01:03:06;;;;;;;34.75;22.05;;;;;;;2.48;100.00;99968.66;5070765;28;20045;-79
2023/12/01 01:05:32;;;;;;;34.95;22.10;;;;;;;2.71;100.00;99982.72;5053159;28;20036;-78
2023/12/01 01:07:58;;;;;;;37.25;23.60;;;;;;;2.31;100.00;99944.16;5053115;28;20052;-79
2023/12/01 01:10:23;;;;;;;33.35;20.45;;;;;;;2.03;100.00;99927.94;5071264;28;20133;-78
2023/12/01 01:12:49;;;;;;;32.75;21.48;;;;;;;2.18;100.00;99924.44;5052901;28;20107;-79
2023/12/01 01:15:14;;;;;;;34.13;21.35;;;;;;;1.80;100.00;99970.69;5053226;28;20036;-78
2023/12/01 01:17:40;;;;;;;30.52;20.20;;;;;;;1.60;100.00;99952.59;5071411;28;20039;-78
2023/12/01 01:20:06;;;;;;;32.92;20.50;;;;;;;2.10;100.00;99957.84;5071241;28;20048;-78
2023/12/01 01:22:32;;;;;;;31.60;20.00;;;;;;;1.76;100.00;99977.28;5071110;28;20039;-78
2023/12/01 01:24:57;;;;;;;30.73;19.70;;;;;;;1.41;100.00;99955.56;5053485;28;20028;-79
2023/12/01 01:27:23;;;;;;;32.55;21.65;;;;;;;1.94;100.00;99969.19;5071213;28;20027;-78
2023/12/01 01:29:48;;;;;;;34.33;21.95;;;;;;;2.15;100.00;99951.09;5053157;28;20083;-78
2023/12/01 01:32:14;;;;;;;35.08;22.05;;;;;;;2.08;100.00;99934.34;5052896;28;20028;-80
2023/12/01 01:34:40;;;;;;;33.33;21.20;;;;;;;2.38;100.00;99931.97;5071253;28;20024;-79
2023/12/01 01:37:07;;;;;;;35.17;21.65;;;;;;;2.74;100.00;99977.13;5070619;28;20031;-78
2023/12/01 01:39:33;;;;;;;36.30;22.10;;;;;;;2.46;100.00;99944.31;5053012;28;20029;-78
2023/12/01 01:41:58;;;;;;;41.17;22.65;;;;;;;2.67;100.00;99943.72;5052469;28;20047;-78
2023/12/01 01:44:24;;;;;;;36.72;21.48;;;;;;;2.47;100.00;99940.66;5070630;28;20408;-79
2023/12/01 01:46:50;;;;;;;38.20;20.88;;;;;;;1.82;100.00;99924.03;5052475;28;20024;-79
2023/12/01 01:49:16;;;;;;;38.20;22.10;;;;;;;1.96;100.00;99930.41;5070611;28;20039;-78
2023/12/01 01:51:43;;;;;;;32.25;21.13;;;;;;;1.46;100.00;99929.59;5070908;28;20082;-78
2023/12/01 01:54:10;;;;;;;35.70;22.80;;;;;;;2.12;100.00;99934.81;5070940;28;20032;-78
2023/12/01 01:56:35;;;;;;;34.67;20.95;;;;;;;2.05;100.00;99918.09;5070531;28;20070;-78
2023/12/01 01:59:01;;;;;;;35.42;19.95;;;;;;;1.40;100.00;99914.47;5070226;28;20455;-79
2023/12/01 02:01:26;;;;;;;32.88;21.63;;;;;;;1.39;100.00;99929.44;5070940;28;20048;-78
2023/12/01 02:03:53;;;;;;;33.33;20.73;;;;;;;1.72;100.00;99918.13;5070593;28;20080;-78
2023/12/01 02:06:19;;;;;;;36.03;20.45;;;;;;;1.57;100.00;99889.88;5052517;28;20058;-78
2023/12/01 02:08:45;;;;;;;37.40;21.73;;;;;;;1.36;100.00;99908.72;5052582;28;20017;-79
2023/12/01 02:11:14;;;;;;;32.10;20.05;;;;;;;1.05;100.00;99902.47;5052530;28;20033;-79
2023/12/01 02:13:40;;;;;;;32.83;20.70;;;;;;;1.24;100.00;99940.72;5067321;28;20187;-78
2023/12/01 02:16:07;;;;;;;33.15;20.13;;;;;;;0.86;100.00;99885.16;5070535;28;20135;-78
2023/12/01 02:18:35;;;;;;;36.58;20.48;;;;;;;1.54;100.00;99913.84;5052172;28;20024;-78
2023/12/01 02:21:01;;;;;;;33.20;19.23;;;;;;;1.19;100.00;99893.94;5070538;28;20048;-79
2023/12/01 02:23:27;;;;;;;33.00;20.15;;;;;;;0.93;100.00;99894.06;5052424;28;20035;-79
2023/12/01 02:25:53;;;;;;;33.63;19.77;;;;;;;1.22;100.00;99911.19;5070392;28;20497;-78
2023/12/01 02:28:19;;;;;;;39.17;21.88;;;;;;;0.98;100.00;99868.13;5069951;28;20052;-78
2023/12/01 02:30:50;;;;;;;34.95;21.08;;;;;;;1.27;100.00;99909.72;5069639;28;20505;-78
2023/12/01 02:33:16;;;;;;;38.38;22.67;;;;;;;1.60;100.00;99922.88;5069639;28;20478;-78
2023/12/01 02:35:52;;;;;;;39.20;22.33;;;;;;;1.15;100.00;99903.13;5052010;28;20035;-78
2023/12/01 02:38:19;;;;;;;39.75;22.73;;;;;;;1.67;100.00;99918.59;5070463;28;20036;-78
2023/12/01 02:40:51;;;;;;;36.00;20.67;;;;;;;1.65;100.00;99867.19;5051891;28;20037;-79
2023/12/01 02:43:18;;;;;;;38.15;21.85;;;;;;;1.18;100.00;99874.72;5069722;28;20116;-80
2023/12/01 02:45:44;;;;;;;39.60;21.05;;;;;;;1.02;100.00;99853.69;5051843;28;20465;-78
2023/12/01 02:48:10;;;;;;;40.10;22.48;;;;;;;1.65;100.00;99901.34;5052039;28;20496;-78
2023/12/01 02:50:36;;;;;;;35.70;22.65;;;;;;;1.93;100.00;99892.13;5069537;28;20043;-78
2023/12/01 02:53:02;;;;;;;36.58;22.30;;;;;;;2.04;100.00;99879.59;5069556;28;20600;-78
2023/12/01 02:55:27;;;;;;;34.33;21.77;;;;;;;2.00;100.00;99856.28;5069366;28;20036;-80
2023/12/01 02:57:54;;;;;;;34.28;21.20;;;;;;;2.42;100.00;99889.34;5069332;28;20032;-78
2023/12/01 03:00:20;;;;;;;35.25;21.65;;;;;;;2.38;100.00;99897.75;5069660;28;20024;-78
2023/12/01 03:02:46;;;;;;;36.20;22.25;;;;;;;1.94;100.00;99880.63;5069554;28;20148;-78
2023/12/01 03:05:12;;;;;;;33.72;20.70;;;;;;;1.81;100.00;99896.88;5069770;28;20067;-79
2023/12/01 03:07:38;;;;;;;31.52;19.63;;;;;;;1.89;100.00;99877.66;5051501;28;20557;-79
2023/12/01 03:10:07;;;;;;;30.02;18.92;;;;;;;2.20;100.00;99900.59;5069027;28;20103;-78
2023/12/01 03:12:33;;;;;;;32.08;21.42;;;;;;;2.21;100.00;99889.91;5069301;28;20040;-78
2023/12/01 03:14:58;;;;;;;31.92;20.67;;;;;;;2.15;100.00;99881.88;5069353;28;20566;-78
2023/12/01 03:17:24;;;;;;;31.33;19.85;;;;;;;2.35;100.00;99891.03;5069514;28;20400;-81
2023/12/01 03:19:51;;;;;;;31.73;20.30;;;;;;;2.42;100.00;99891.16;5072230;28;20070;-78
2023/12/01 03:22:17;;;;;;;32.47;19.10;;;;;;;2.10;100.00;99863.97;5073725;28;20108;-78
2023/12/01 03:24:44;;;;;;;27.42;18.90;;;;;;;1.86;100.00;99856.13;5055645;28;20029;-78
2023/12/01 03:27:10;;;;;;;28.80;19.77;;;;;;;1.56;100.00;99830.38;5055648;28;20465;-79
2023/12/01 03:29:38;;;;;;;33.00;21.35;;;;;;;1.54;100.00;99821.03;5073662;28;20112;-79
2023/12/01 03:32:04;;;;;;;30.52;20.45;;;;;;;2.03;100.00;99852.50;5073315;28;20032;-78
2023/12/01 03:34:30;;;;;;;29.52;19.13;;;;;;;2.04;100.00;99884.88;5073079;28;20051;-78
2023/12/01 03:36:56;;;;;;;28.02;19.17;;;;;;;1.52;100.00;99860.63;5073139;28;20064;-79
2023/12/01 03:39:21;;;;;;;30.42;19.48;;;;;;;1.27;100.00;99840.56;5055222;28;21088;-78
2023/12/01 03:41:50;;;;;;;32.22;19.92;;;;;;;1.26;100.00;99828.44;5073359;28;20020;-79
2023/12/01 03:44:15;;;;;;;;;;;;;;;1.97;100.00;99880.28;5073150;28;20086;-79
2023/12/01 03:46:41;;;;;;;34.33;19.92;;;;;;;1.73;100.00;99851.38;5054971;28;19908;-79
2023/12/01 03:49:06;;;;;;;33.45;21.30;;;;;;;1.89;100.00;99845.28;5072670;28;20028;-78
2023/12/01 03:51:32;;;;;;;35.10;22.77;;;;;;;2.00;100.00;99872.06;5072615;28;20062;-78
2023/12/01 03:53:57;;;;;;;40.53;24.58;;;;;;;1.84;100.00;99861.56;5072499;28;20036;-79
2023/12/01 03:56:23;;;;;;;35.00;24.45;;;;;;;1.96;100.00;99873.38;5072568;28;20086;-78
2023/12/01 03:58:52;;;;;;;30.98;19.90;;;;;;;1.98;100.00;99879.31;5073110;28;20032;-78
2023/12/01 04:01:18;;;;;;;33.20;21.02;;;;;;;1.79;100.00;99861.25;5072536;28;20231;-80
2023/12/01 04:03:44;;;;;;;34.08;20.95;;;;;;;2.04;100.00;99880.41;5072687;28;20032;-79
2023/12/01 04:06:09;;;;;;;36.83;20.77;;;;;;;1.58;100.00;99859.13;5072731;28;20027;-79
2023/12/01 04:08:35;;;;;;;37.55;21.98;;;;;;;1.77;100.00;99876.38;5072704;28;20027;-78
2023/12/01 04:11:00;;;;;;;33.00;20.90;;;;;;;2.10;100.00;99852.63;5072527;28;20032;-78
2023/12/01 04:13:27;;;;;;;36.88;22.88;;;;;;;1.69;100.00;99855.34;5072333;28;20029;-79
2023/12/01 04:15:52;;;;;;;38.58;24.35;;;;;;;1.36;100.00;99850.09;5072598;28;20422;-79
2023/12/01 04:18:18;;;;;;;34.10;21.35;;;;;;;1.27;100.00;99861.59;5054651;28;20028;-78
2023/12/01 04:20:43;;;;;;;32.60;20.42;;;;;;;1.62;100.00;99860.44;5072513;28;20052;-79
2023/12/01 04:23:10;;;;;;;42.97;26.98;;;;;;;2.00;100.00;99895.72;5071999;28;20036;-79
2023/12/01 04:25:40;;;;;;;42.10;26.58;;;;;;;2.38;100.00;99901.22;5072337;28;20048;-79
2023/12/01 04:28:06;;;;;;;39.70;25.58;;;;;;;1.79;100.00;99869.13;5072407;28;20033;-80
2023/12/01 04:30:33;;;;;;;42.65;24.63;;;;;;;1.95;100.00;99882.25;5054033;28;20060;-78
2023/12/01 04:32:59;;;;;;;36.38;24.27;;;;;;;2.29;100.00;99883.81;5053853;28;20039;-79
2023/12/01 04:35:33;;;;;;;36.20;23.65;;;;;;;2.13;100.00;99878.59;5072223;28;20032;-79
2023/12/01 04:38:00;;;;;;;64.90;41.60;;;;;;;1.77;100.00;99874.53;5072340;28;20098;-80
2023/12/01 04:40:27;;;;;;;61.13;37.47;;;;;;;1.93;100.00;99881.59;5071819;28;20032;-78
2023/12/01 04:42:57;;;;;;;53.40;32.25;;;;;;;2.25;100.00;99898.31;5071423;28;20028;-81
2023/12/01 04:45:24;;;;;;;60.78;36.78;;;;;;;1.92;100.00;99903.63;5071712;28;20056;-79
2023/12/01 04:47:51;;;;;;;45.90;28.00;;;;;;;1.66;100.00;99876.72;5054033;28;20024;-78
2023/12/01 04:50:19;;;;;;;40.78;26.08;;;;;;;1.88;100.00;99856.78;5053981;28;20044;-81
2023/12/01 04:52:47;;;;;;;36.10;23.85;;;;;;;2.31;100.00;99881.84;5071687;28;20031;-79
2023/12/01 04:55:15;;;;;;;36.17;22.75;;;;;;;1.92;100.00;99814.22;5053920;28;20062;-81
2023/12/01 04:57:42;;;;;;;38.83;23.92;;;;;;;2.06;100.00;99836.34;5053956;28;20047;-78
2023/12/01 05:00:19;;;;;;;69.88;37.45;;;;;;;2.09;100.00;99840.47;5053593;28;20047;-79
2023/12/01 05:03:05;;;;;;;40.20;24.23;;;;;;;1.93;100.00;99870.25;5071067;28;20394;-80
2023/12/01 05:05:40;;;;;;;37.25;24.10;;;;;;;2.24;100.00;99878.22;5053531;28;20060;-79
2023/12/01 05:08:08;;;;;;;36.28;22.88;;;;;;;1.89;100.00;99853.19;5071738;28;20027;-79
2023/12/01 05:10:35;;;;;;;41.03;22.67;;;;;;;2.32;100.00;99886.09;5060932;28;20043;-78
2023/12/01 05:13:03;;;;;;;37.42;22.25;;;;;;;2.24;100.00;99867.72;5071535;28;20046;-79
2023/12/01 05:15:31;;;;;;;38.05;25.40;;;;;;;1.76;100.00;99859.78;5070241;28;20036;-78
2023/12/01 05:17:59;;;;;;;51.53;26.67;;;;;;;2.20;100.00;99890.09;5071650;28;20469;-78
2023/12/01 05:20:27;;;;;;;33.72;20.88;;;;;;;2.19;100.00;99867.41;5070985;28;20048;-79
2023/12/01 05:22:54;;;;;;;43.33;26.10;;;;;;;2.44;100.00;99891.81;5070685;28;20059;-79
2023/12/01 05:25:21;;;;;;;41.33;26.33;;;;;;;2.06;100.00;99893.41;5052928;28;20587;-79
2023/12/01 05:27:50;;;;;;;40.33;24.80;;;;;;;1.92;100.00;99893.13;5068301;28;20090;-78
2023/12/01 05:30:26;;;;;;;37.45;24.40;;;;;;;1.85;100.00;99857.94;5070001;28;20036;-79
2023/12/01 05:32:53;;;;;;;38.53;24.25;;;;;;;1.69;100.00;99860.59;5070945;28;20138;-78
2023/12/01 05:35:20;;;;;;;37.60;23.05;;;;;;;2.27;100.00;99896.31;5070685;28;20409;-79
2023/12/01 05:37:48;;;;;;;40.40;25.33;;;;;;;2.37;100.00;99869.78;5071312;28;20052;-78
2023/12/01 05:40:25;;;;;;;45.78;27.23;;;;;;;2.29;100.00;99886.44;5070880;28;20504;-78
2023/12/01 05:42:53;;;;;;;41.95;26.20;;;;;;;2.52;100.00;99890.97;5059658;28;20050;-78
2023/12/01 05:45:29;;;;;;;38.20;24.48;;;;;;;2.24;100.00;99867.72;5052666;28;20036;-80
2023/12/01 05:47:56;;;;;;;34.20;22.83;;;;;;;2.29;100.00;99883.81;5052830;28;20021;-77
2023/12/01 05:50:25;;;;;;;36.00;21.52;;;;;;;2.49;100.00;99880.78;5070782;28;20040;-80
2023/12/01 05:52:53;;;;;;;34.60;20.17;;;;;;;2.34;100.00;99843.84;5069870;28;20043;-78
2023/12/01 05:55:20;;;;;;;36.10;23.70;;;;;;;2.33;100.00;99850.91;5071204;28;20111;-78
2023/12/01 05:57:53;;;;;;;41.55;31.23;;;;;;;2.07;100.00;99835.38;5053130;28;20036;-81
2023/12/01 06:00:23;;;;;;;37.25;23.58;;;;;;;2.16;100.00;99862.47;5070904;28;20170;-80
2023/12/01 06:02:51;;;;;;;35.35;20.52;;;;;;;2.09;100.00;99848.38;5053486;28;20035;-78
2023/12/01 06:05:19;;;;;;;40.30;22.65;;;;;;;2.49;100.00;99873.69;5070738;28;20032;-78
2023/12/01 06:07:49;;;;;;;35.92;21.95;;;;;;;2.33;100.00;99864.06;5053236;28;20516;-78
2023/12/01 06:10:16;;;;;;;36.63;21.52;;;;;;;2.34;100.00;99876.22;5053709;28;20025;-78
2023/12/01 06:12:42;;;;;;;33.05;22.20;;;;;;;2.61;100.00;99861.78;5070854;28;20024;-81
2023/12/01 06:15:09;;;;;;;33.55;21.08;;;;;;;2.57;100.00;99880.75;5080734;28;20028;-79
2023/12/01 06:17:38;;;;;;;36.00;24.95;;;;;;;2.62;100.00;99867.91;5090069;28;20031;-82
2023/12/01 06:20:04;;;;;;;40.90;27.75;;;;;;;2.53;100.00;99832.06;5090023;28;20063;-79
2023/12/01 06:22:30;;;;;;;53.00;31.60;;;;;;;2.41;100.00;99837.72;5073092;28;20024;-80
2023/12/01 06:24:56;;;;;;;46.85;26.83;;;;;;;2.68;100.00;99825.09;5072878;28;20031;-82
2023/12/01 06:27:22;;;;;;;46.30;29.27;;;;;;;2.66;100.00;99849.94;5090138;28;20031;-80
2023/12/01 06:29:50;;;;;;;36.58;22.67;;;;;;;2.31;100.00;99828.38;5090700;28;20024;-81
2023/12/01 06:32:16;;;;;;;39.90;24.08;;;;;;;2.60;100.00;99833.84;5089670;28;20040;-80
2023/12/01 06:34:41;;;;;;;50.58;29.33;;;;;;;2.69;100.00;99853.03;5067583;28;20033;-79
2023/12/01 06:37:07;;;;;;;49.72;29.98;;;;;;;2.50;100.00;99829.78;5084589;28;20104;-80
2023/12/01 06:39:32;;;;;;;46.17;27.35;;;;;;;2.44;100.00;99822.56;5066223;28;20025;-78
2023/12/01 06:41:58;;;;;;;41.67;25.98;;;;;;;2.99;100.00;99869.00;5066047;28;20032;-79
2023/12/01 06:44:23;;;;;;;42.38;27.40;;;;;;;2.92;100.00;99846.97;5065474;28;20119;-79
2023/12/01 06:46:49;;;;;;;46.33;29.00;;;;;;;3.18;100.00;99857.19;5064287;28;20135;-80
2023/12/01 06:49:14;;;;;;;43.65;28.02;;;;;;;3.09;100.00;99830.09;5081193;28;20044;-81
2023/12/01 06:51:39;;;;;;;45.08;28.77;;;;;;;3.07;100.00;99844.44;5061956;28;20129;-79
2023/12/01 06:54:09;;;;;;;53.00;33.83;;;;;;;2.97;100.00;99858.63;5075609;28;20081;-79
2023/12/01 06:56:35;;;;;;;61.22;37.20;;;;;;;2.94;100.00;99852.91;5073599;28;20081;-79
2023/12/01 06:59:01;;;;;;;62.33;38.83;;;;;;;2.87;100.00;99828.25;5072002;28;20028;-78
2023/12/01 07:01:26;;;;;;;56.35;35.80;;;;;;;3.21;100.00;99846.31;5071572;28;20037;-79
2023/12/01 07:03:51;;;;;;;57.90;37.75;;;;;;;2.91;100.00;99811.13;5070295;28;20593;-79
2023/12/01 07:06:17;;;;;;;65.20;38.47;;;;;;;3.15;100.00;99850.47;5070121;28;20131;-80
2023/12/01 07:08:42;;;;;;;84.57;46.58;;;;;;;3.49;100.00;99870.28;5052281;28;20027;-78
2023/12/01 07:11:08;;;;;;;105.05;61.03;;;;;;;3.44;100.00;99848.91;5051980;28;20039;-80
2023/12/01 07:13:33;;;;;;;95.60;56.35;;;;;;;3.20;100.00;99845.47;5051730;28;20451;-78
2023/12/01 07:15:59;;;;;;;73.00;45.17;;;;;;;3.36;100.00;99841.88;5069767;28;20511;-79
2023/12/01 07:18:25;;;;;;;75.78;48.30;;;;;;;3.72;100.00;99843.06;5069546;28;20020;-79
2023/12/01 07:20:50;;;;;;;67.63;44.65;;;;;;;3.73;100.00;99827.06;5068391;28;20052;-78
2023/12/01 07:23:19;;;;;;;77.68;46.72;;;;;;;3.85;100.00;99853.81;5051330;28;20382;-78
2023/12/01 07:25:47;;;;;;;74.68;46.60;;;;;;;3.94;100.00;99852.75;5068834;28;20033;-79
2023/12/01 07:28:13;;;;;;;51.80;33.85;;;;;;;4.33;100.00;99880.69;5069072;28;20516;-80
2023/12/01 07:30:40;;;;;;;38.70;24.80;;;;;;;4.12;100.00;99843.63;5047813;28;20032;-79
2023/12/01 07:33:06;;;;;;;37.55;23.35;;;;;;;4.32;100.00;99876.41;5031608;28;20129;-80
2023/12/01 07:35:31;;;;;;;37.63;23.10;;;;;;;3.99;100.00;99876.75;5047228;28;20135;-79
2023/12/01 07:37:57;;;;;;;31.90;21.98;;;;;;;4.22;100.00;99884.59;5069397;28;20028;-79
2023/12/01 07:40:23;;;;;;;37.05;24.63;;;;;;;4.48;100.00;99842.91;5050926;28;20040;-80
2023/12/01 07:42:50;;;;;;;37.15;23.90;;;;;;;4.32;100.00;99857.91;5069175;28;20120;-79
2023/12/01 07:45:19;;;;;;;40.50;24.48;;;;;;;4.47;100.00;99897.50;5068801;28;20036;-79
2023/12/01 07:47:49;;;;;;;37.95;27.08;;;;;;;4.45;100.00;99885.50;5068287;28;20710;-79
2023/12/01 07:50:15;;;;;;;39.38;25.73;;;;;;;4.92;100.00;99897.44;5068474;28;20028;-79
2023/12/01 07:52:49;;;;;;;36.30;22.98;;;;;;;5.04;100.00;99901.25;5069038;28;20032;-79
2023/12/01 07:55:15;;;;;;;31.55;20.92;;;;;;;5.04;100.00;99903.88;5068355;28;20501;-80
2023/12/01 07:57:41;;;;;;;31.17;20.42;;;;;;;5.10;100.00;99910.25;5068971;28;20036;-79
2023/12/01 08:00:14;;;;;;;30.08;21.77;;;;;;;5.02;100.00;99890.84;5068629;28;20040;-79
2023/12/01 08:02:40;;;;;;;36.08;22.10;;;;;;;5.02;100.00;99909.34;5030998;28;20036;-78
2023/12/01 08:05:13;;;;;;;32.40;22.02;;;;;;;5.28;100.00;99891.34;5064453;28;20107;-82
2023/12/01 08:07:42;;;;;;;32.83;21.60;;;;;;;5.21;100.00;99896.53;5071960;28;20073;-80
2023/12/01 08:10:09;;;;;;;38.85;22.42;;;;;;;5.37;100.00;99887.53;5071982;28;20629;-78
2023/12/01 08:12:34;;;;;;;31.98;21.67;;;;;;;5.26;100.00;99896.00;5071132;28;20032;-79
2023/12/01 08:15:00;;;;;;;36.65;24.23;;;;;;;5.19;100.00;99872.94;5071842;28;20036;-80
2023/12/01 08:17:25;;;;;;;32.63;23.88;;;;;;;5.36;100.00;99868.22;5072352;28;20055;-78
2023/12/01 08:19:51;;;;;;;36.17;23.67;;;;;;;5.30;100.00;99894.59;5072186;28;20135;-78
2023/12/01 08:22:17;;;;;;;38.30;23.80;;;;;;;5.40;100.00;99876.59;5072097;28;20028;-79
2023/12/01 08:24:45;;;;;;;32.17;22.30;;;;;;;5.51;100.00;99904.34;5072014;28;20048;-79
2023/12/01 08:27:11;;;;;;;;;;;;;;;5.76;100.00;99915.34;5072560;28;20027;-80
2023/12/01 08:29:36;;;;;;;32.58;21.48;;;;;;;5.71;100.00;99901.88;5053544;28;20011;-80
2023/12/01 08:32:03;;;;;;;33.22;21.65;;;;;;;5.66;100.00;99904.28;5070603;28;20027;-79
2023/12/01 08:34:28;;;;;;;35.70;23.27;;;;;;;5.98;100.00;99929.41;5070305;28;20033;-80
2023/12/01 08:36:54;;;;;;;32.08;20.23;;;;;;;5.97;100.00;99902.13;5053196;28;20025;-79
2023/12/01 08:39:20;;;;;;;34.85;21.58;;;;;;;5.80;100.00;99901.56;5052623;28;20032;-79
2023/12/01 08:41:46;;;;;;;30.88;19.75;;;;;;;5.92;100.00;99909.78;5070367;28;20674;-81
2023/12/01 08:44:11;;;;;;;39.30;25.25;;;;;;;6.16;100.00;99899.81;5070076;28;20055;-80
2023/12/01 08:46:37;;;;;;;29.65;19.52;;;;;;;6.18;100.00;99863.38;5071451;28;20032;-78
2023/12/01 08:49:02;;;;;;;26.30;18.60;;;;;;;6.57;100.00;99896.38;5053881;28;20460;-78
2023/12/01 08:51:27;;;;;;;50.47;34.78;;;;;;;6.46;100.00;99857.16;5071781;28;20059;-79
2023/12/01 08:53:53;;;;;;;26.98;18.52;;;;;;;6.46;100.00;99873.06;5071715;28;20027;-79
2023/12/01 08:56:19;;;;;;;26.85;18.55;;;;;;;6.92;100.00;99883.03;5071068;28;20078;-78
2023/12/01 08:58:44;;;;;;;27.42;19.00;;;;;;;6.88;100.00;99876.50;5071560;28;20024;-78
2023/12/01 09:01:10;;;;;;;26.33;17.80;;;;;;;6.83;100.00;99854.06;5071269;28;20103;-78
2023/12/01 09:03:35;;;;;;;29.13;19.55;;;;;;;7.33;100.00;99892.72;5071584;28;20453;-78
2023/12/01 09:06:03;;;;;;;21.98;16.58;;;;;;;7.41;100.00;99868.66;5070962;28;20108;-78
2023/12/01 09:08:29;;;;;;;27.52;18.27;;;;;;;7.72;99.52;99883.16;5053501;28;20396;-82
2023/12/01 09:10:54;;;;;;;25.95;18.33;;;;;;;7.68;100.00;99866.00;5071174;28;20826;-79
2023/12/01 09:13:19;;;;;;;23.65;17.30;;;;;;;8.02;98.78;99847.19;5052902;28;20037;-78
2023/12/01 09:15:45;;;;;;;25.33;16.63;;;;;;;8.25;98.68;99852.06;5069899;28;20145;-79
2023/12/01 09:18:10;;;;;;;33.10;21.88;;;;;;;8.35;97.91;99859.56;5070728;28;20112;-78
2023/12/01 09:20:36;;;;;;;22.65;15.35;;;;;;;8.57;93.61;99854.00;5070525;28;20052;-79
2023/12/01 09:23:01;;;;;;;23.58;16.30;;;;;;;8.57;94.56;99856.66;5070536;28;20055;-78
2023/12/01 09:25:26;;;;;;;24.20;16.33;;;;;;;8.17;96.44;99835.50;5053070;28;20493;-80
2023/12/01 09:27:52;;;;;;;25.38;16.48;;;;;;;8.37;97.56;99812.34;5071004;28;20028;-79
2023/12/01 09:30:18;;;;;;;22.42;15.20;;;;;;;8.58;99.14;99807.78;5070687;28;20125;-79
2023/12/01 09:32:44;;;;;;;22.90;17.17;;;;;;;8.95;93.28;99831.91;5070965;28;20024;-78
2023/12/01 09:35:10;;;;;;;20.60;14.52;;;;;;;9.13;93.15;99829.34;5070700;28;20032;-81
2023/12/01 09:37:35;;;;;;;23.23;15.80;;;;;;;9.17;90.29;99795.97;5070737;28;20028;-78
2023/12/01 09:40:03;;;;;;;22.17;14.95;;;;;;;9.35;88.96;99799.72;5070388;28;20035;-80
2023/12/01 09:42:33;;;;;;;22.50;15.77;;;;;;;9.35;90.60;99805.84;5070802;28;20021;-79
2023/12/01 09:45:00;;;;;;;20.77;13.57;;;;;;;9.48;91.34;99804.13;5070662;28;20044;-79
2023/12/01 09:47:29;;;;;;;21.52;14.40;;;;;;;9.64;89.45;99780.44;5070754;28;20024;-78
2023/12/01 09:49:55;;;;;;;23.33;16.33;;;;;;;10.20;87.46;99825.75;5070399;28;20060;-78
2023/12/01 09:52:20;;;;;;;21.13;14.85;;;;;;;10.31;85.93;99803.72;5069893;28;20106;-79
2023/12/01 09:54:46;;;;;;;22.35;15.43;;;;;;;10.54;82.69;99779.03;5070169;28;20111;-79
2023/12/01 09:57:12;;;;;;;20.92;15.27;;;;;;;10.59;85.84;99802.34;5052252;28;20036;-79
2023/12/01 09:59:38;;;;;;;21.10;15.52;;;;;;;10.55;85.83;99822.50;5052427;28;20473;-78
2023/12/01 10:02:04;;;;;;;23.63;15.45;;;;;;;10.47;86.47;99796.16;5052098;28;20028;-78
2023/12/01 10:04:33;;;;;;;21.17;15.18;;;;;;;10.74;83.21;99807.28;5070304;28;20035;-79
2023/12/01 10:07:00;;;;;;;25.77;19.65;;;;;;;10.49;84.40;99802.09;5069932;28;20028;-78
2023/12/01 10:09:27;;;;;;;20.55;14.70;;;;;;;10.25;86.12;99826.69;5052135;28;20208;-79
2023/12/01 10:12:10;;;;;;;22.48;14.70;;;;;;;10.32;86.66;99815.19;5069902;28;20032;-78
2023/12/01 10:14:36;;;;;;;26.73;19.13;;;;;;;10.53;86.71;99813.91;5069674;28;20028;-78
2023/12/01 10:17:07;;;;;;;20.77;15.40;;;;;;;10.67;85.17;99798.56;5051986;28;20032;-78
2023/12/01 10:19:33;;;;;;;23.63;16.27;;;;;;;10.48;85.09;99795.09;5069765;28;20447;-79
2023/12/01 10:21:59;;;;;;;26.20;15.88;;;;;;;10.03;87.79;99783.72;5070020;28;20086;-78
2023/12/01 10:24:25;;;;;;;22.75;16.05;;;;;;;10.57;86.43;99799.91;5052264;28;20024;-78
2023/12/01 10:26:52;;;;;;;23.60;16.90;;;;;;;10.72;85.33;99788.03;5069564;28;20114;-78
2023/12/01 10:29:31;;;;;;;23.50;16.92;;;;;;;10.62;86.50;99786.72;5069627;28;20030;-79
2023/12/01 10:32:00;;;;;;;;;;;;;;;10.73;83.56;99781.66;5070016;28;20508;-79
2023/12/01 10:34:25;;;;;;;23.33;16.13;;;;;;;10.51;87.83;99760.00;5069929;28;20437;-79
2023/12/01 10:36:52;;;;;;;21.30;16.45;;;;;;;10.73;87.64;99760.31;5051986;28;20024;-80
2023/12/01 10:39:21;;;;;;;23.17;15.73;;;;;;;10.92;84.28;99769.88;5069901;28;20032;-78
2023/12/01 10:41:47;;;;;;;20.75;15.45;;;;;;;10.77;85.36;99767.63;5070285;28;20045;-78
2023/12/01 10:44:19;;;;;;;20.88;15.27;;;;;;;10.77;86.26;99756.97;5069868;28;20398;-79
2023/12/01 10:46:48;;;;;;;24.10;16.10;;;;;;;10.64;86.37;99730.47;5069884;28;20123;-79
2023/12/01 10:49:17;;;;;;;24.67;16.48;;;;;;;10.71;85.91;99752.53;5051552;28;20066;-79
2023/12/01 10:51:47;;;;;;;22.33;15.52;;;;;;;10.27;89.05;99706.56;5069654;28;20032;-79
2023/12/01 10:54:14;;;;;;;23.02;15.60;;;;;;;10.56;86.65;99728.97;5051343;28;20098;-79
2023/12/01 10:57:06;;;;;;;21.90;15.27;;;;;;;10.34;90.71;99765.13;5066723;28;20425;-79
2023/12/01 10:59:34;;;;;;;24.05;15.88;;;;;;;10.15;90.00;99737.66;5069250;28;20413;-79
2023/12/01 11:02:00;;;;;;;22.23;15.60;;;;;;;10.20;92.13;99764.47;5051372;28;20044;-78
2023/12/01 11:04:26;;;;;;;22.98;15.65;;;;;;;10.32;90.09;99754.72;5068951;28;20029;-78
2023/12/01 11:06:58;;;;;;;23.35;15.93;;;;;;;10.43;87.60;99756.59;5051453;28;20035;-79
2023/12/01 11:09:51;;;;;;;22.98;15.80;;;;;;;10.29;86.52;99759.63;5051518;28;20060;-79
2023/12/01 11:12:43;;;;;;;27.83;18.75;;;;;;;10.71;86.79;99781.88;5069212;28;20060;-80
2023/12/01 11:15:19;;;;;;;22.60;15.85;;;;;;;11.21;85.46;99784.19;5069033;28;20485;-79
2023/12/01 11:17:46;;;;;;;22.52;15.90;;;;;;;11.95;81.95;99767.75;5069535;28;20032;-79
2023/12/01 11:20:30;;;;;;;22.73;15.38;;;;;;;12.23;78.50;99795.59;5069109;28;20052;-79